Immagine casuale
Testata Regione Lazio ARSIAL SIARL

Ultima Misura Rilevata

Temperatura, Umidità, Pioggia, Pressione Radiazione Solare, Venti, Evapotraspirazione, ecc.
Temperature diurne e notturne Direzione vento Legenda
Prov Stazione Data TMin TMed TMax UMed Pioggia PMed
FR ALATRI Basciano 16/01/2020 3,3 7,6 14,9 64 0 1.022
FR ALVITO Az. Ist. S. Benedetto 16/01/2020 -4,3 2,7 13,7 81 0,2 1.030
FR ANAGNI La Gloria 16/01/2020 -0,7 5 13,9 84 0 1.031
FR ARPINO Vigne Piane 16/01/2020 3,3 6,8 12,2 67 0 1.025
FR BOVILLE ERNICA Sasso 16/01/2020 0,5 6,4 15,5 71 0 1.029
FR CECCANO C.da Passo del Cardinale 16/01/2020 -6 1,8 15,8 87 0 ----
FR ESPERIA Modale 16/01/2020 -3,1 3,2 15,6 70 0,2 1.023
FR PASTENA Acero 16/01/2020 -7,5 -0,5 14,5 91 0 1.024
FR PIGLIO Civitella 16/01/2020 -0,7 5,4 14,7 76 0 1.028
FR PONTECORVO Melfi di Sotto 16/01/2020 -3,5 3,2 16,3 85 0,2 ----
FR S. ELIA FIUMERAPIDO Portella 16/01/2020 -1,1 4,5 13,3 87 0 1.029
FR S. GIORGIO A LIRI Porto 16/01/2020 -4,9 1,7 14,7 83 0,2 1.021
FR SGURGOLA Campo Lungo 16/01/2020 -5,5 2 14,7 88 0 ----
FR VALLECORSA Serbatoio comunale 16/01/2020 4,1 7,2 14,6 70 0 1.028
LT APRILIA Le Ferriere 16/01/2020 2,7 8 15,8 71 0 1.028
LT CISTERNA B.go Carso 16/01/2020 -1,6 5,9 15,5 78 0 ----
LT CISTERNA Doganella di Ninfa 16/01/2020 1,1 7,5 16,5 73 0 1.029
LT CORI Portone 16/01/2020 3,4 8,7 16,1 64 0 1.028
LT FONDI Capratica 16/01/2020 -0,3 5,6 15 89 0 1.029
LT FORMIA Loc. Gianola 16/01/2020 -1,1 5,1 14,4 86 0,2 ----
LT ITRI Valle Quercia 16/01/2020 5 9,2 14,4 61 0 1.027
LT MAENZA Casacotta 16/01/2020 -0,2 6,3 16,2 79 0 1.019
LT MINTURNO Pulcherini 16/01/2020 4,9 9,8 15,6 68 0 1.029
LT PONTINIA Cotarda 16/01/2020 -2,3 5,4 17,5 85 0 1.026
LT SABAUDIA Acquaviva 16/01/2020 0,3 6,3 14,6 83 0 1.027
LT SONNINO Frasso 16/01/2020 6,2 9,9 17,1 69 0 1.028
RI ACCUMOLI Terracino 16/01/2020 -0,4 2,4 6,7 82 0 1.031
RI BORGOVELINO Ponte Basso 16/01/2020 -2,1 2,5 12,1 86 0,2 1.026
RI CANTALUPO S. Francesco 16/01/2020 -1,8 3,1 10,2 90 0,2 ----
RI CASTEL DI TORA Monte di Tora 16/01/2020 -3,6 2,4 12,1 84 0 1.024
RI CASTELNUOVO FARFA C. Spadone 16/01/2020 2,4 5,6 11,1 83 0 ----
RI CONFIGNI Portella 16/01/2020 1,9 5,2 10,8 81 0 1.028
RI FARA SABINA Canneto 16/01/2020 3,2 7,4 14 69 0 1.028
RI FARA SABINA Sant'Andrea 16/01/2020 1,2 6,1 12,2 76 0 ----
RI MONTELEONE S. Prato Camino 16/01/2020 -0,4 5,2 13,4 77 0 1.028
RI MONTOPOLI IN SABINA Colle Arcone 16/01/2020 0 4,8 10,7 91 0,2 ----
RI MONTOPOLI IN SABINA Villa Caprola 16/01/2020 0 4,9 12 96 0 ----
RI POGGIO CATINO Pastine 16/01/2020 1,8 5,9 11,2 82 0 ----
RI POGGIO NATIVO Casali 16/01/2020 2,1 6,3 11,4 77 0 ----
RI RIETI Piana di Rieti 16/01/2020 -7,2 -0,2 12,2 84 0,1 1.033
RI SCANDRIGLIA Ponticelli 16/01/2020 1,9 5,9 12,2 83 0 ----
RM AGOSTA La Cisterna 16/01/2020 -1,8 3,3 14,4 83 0 1.025
RM BRACCIANO Prato Pianciano 16/01/2020 1,7 7,2 14,5 85 0 1.024
RM CANALE MONTERANO Monte Virginio 16/01/2020 -0,6 4,8 16 87 0,2 1.025
RM CERVETERI Campo di Mare 16/01/2020 1,9 9,4 22 76 0 ----
RM CIVITELLA S.PAOLO Le Cese 16/01/2020 0 5,4 11,5 85 0 1.026
RM FIUMICINO Maccarese 16/01/2020 -0,1 5,8 14,6 89 0 1.028
RM FIUMICINO Testa di Lepre 16/01/2020 3,2 7,8 14 81 0 ----
RM FORMELLO Perazzeta 16/01/2020 2,2 7 12,7 81 0 ----
RM FRASCATI Prata Porci 16/01/2020 0 5,9 14 85 0 1.029
RM GENAZZANO Coop. La Sonnina 16/01/2020 N.D. N.D. N.D. N.D. N.D. N.D.
RM GROTTAFERRATA Valle Marciana 16/01/2020 2,8 6,4 12,3 75 0 1.029
RM LADISPOLI Palo Laziale 16/01/2020 1,2 7 14,7 86 0 1.029
RM LICENZA Colle Franco 16/01/2020 0,1 4,5 13,8 79 0 1.023
RM MARCELLINA V. Campetella 16/01/2020 0,4 5,5 13,2 85 0 ----
RM MARINO Gotto d'Oro 16/01/2020 2,3 7,6 12,4 69 0 1.031
RM MONTECOMPATRI Colle Mattia 16/01/2020 0,6 5,5 13,1 81 0 1.031
RM MONTECOMPATRI Pantano Borghese 16/01/2020 -4,7 2,8 15,4 85 0 1.023
RM MONTELIBRETTI Bruciati 16/01/2020 -1,3 4,4 14,3 86 0,2 ----
RM MONTEPORZIO Camaldoli 16/01/2020 1,9 4,7 8,8 80 0 1.031
RM MONTEROTONDO Grotta Marozza 16/01/2020 0,7 5,3 12,9 85 0 1.029
RM PALOMBARA Fonte Grande 16/01/2020 -2,3 3,7 12,2 87 0 ----
RM ROMA Capocotta 16/01/2020 N.D. N.D. N.D. N.D. N.D. ----
RM ROMA Ponte di Nona 16/01/2020 0,7 5,8 13,4 87 0 1.031
RM ROMA Via Lanciani 38 16/01/2020 2,1 7 12,5 79 0 1.028
RM S. GREGORIO C. Faustiniano 16/01/2020 2,9 6,8 13,5 71 0 1.022
RM VELLETRI Cantina Sperimentale 16/01/2020 1,9 6,8 14,6 72 0 1.021
RM VELLETRI Prato Lungo 16/01/2020 4 7,8 15,1 66 0,2 ----
RM ZAGAROLO Santa Apollara 16/01/2020 2,2 6,9 12,8 74 0 ----
VT ACQUAPENDENTE Falconiera 16/01/2020 -0,9 4,6 12,2 87 0 1.027
VT BAGNOREGIO Castell Cellesi 16/01/2020 3,3 7,5 11,3 76 0 ----
VT BASSANO R. Piano Mola 16/01/2020 3,5 7,2 15,4 77 0 1.024
VT BLERA Puntoni 16/01/2020 0,9 5,5 13,3 86 0 1.029
VT BOLSENA Capone 16/01/2020 0,5 6,4 13,3 80 0,2 1.028
VT BOLSENA Rentica 16/01/2020 0,9 6,4 12,2 78 0 ----
VT CANINO Diga Timone 16/01/2020 0,5 5,5 14,9 87 0 1.026
VT CANINO Pianacce 16/01/2020 N.D. N.D. N.D. N.D. N.D. 1.030
VT CANINO San Valeriano 16/01/2020 4,4 8,1 13,1 77 0 ----
VT CELLENO Acquaforte 16/01/2020 0,3 6,4 11,9 85 0 ----
VT CORCHIANO Pantalone 16/01/2020 -1,6 5 13,9 86 0,2 1.027
VT FARNESE Gressa 16/01/2020 0,4 5,8 12,7 81 0,1 ----
VT FARNESE Pian di Sala 16/01/2020 -3,5 4 13,1 85 0,1 ----
VT GROTTE DI CASTRO Borghetto 16/01/2020 0,8 6,2 13,2 83 0 1.028
VT GROTTE DI CASTRO Purgatorio 16/01/2020 -1,7 3,9 12,1 89 0,2 1.028
VT LATERA Centro Florovivaistico 16/01/2020 -2,6 5,6 13,8 63 0,2 1.027
VT MONTALTO Le Murelle 16/01/2020 3,1 7,5 14,1 84 0 1.032
VT MONTALTO Pescia Romana 16/01/2020 1,8 7,7 16,5 85 0 1.028
VT MONTEFIASCONE Commenda 16/01/2020 3 7,7 13,1 80 0 ----
VT RONCIGLIONE Ponterotto 16/01/2020 -0,8 4,6 13,2 82 0 ----
VT SORIANO CIMINO Pantane 16/01/2020 -5,1 2,2 12,4 87 0 1.026
VT SORIANO CIMINO Poggio di Chia 16/01/2020 -1,2 5,1 12,6 87 0,2 ----
VT TARQUINIA Portaccia 16/01/2020 2,2 7,6 15,1 86 0 ----
VT TUSCANIA Montebello 16/01/2020 3,9 9 14,8 83 0 ----
VT VETRALLA Marchionato 16/01/2020 1,3 6,1 13 89 0 ----
VT VITERBO Pisello 16/01/2020 2,1 7 12,3 83 0 ----
N.D. = Dati Non Disponibili
---- = Sensore non presente

Le misure esposte sono grezze, ovvero non sono state validate.